sensor_id;sensor_type;location;lat;lon;timestamp;pressure;altitude;pressure_sealevel;temperature
71807;BMP280;59655;42.590;23.364;2023-06-22T00:00:54;92018.78;;;20.27
71807;BMP280;59655;42.590;23.364;2023-06-22T00:03:22;92017.69;;;20.33
71807;BMP280;59655;42.590;23.364;2023-06-22T00:05:48;92018.88;;;20.29
71807;BMP280;59655;42.590;23.364;2023-06-22T00:08:14;92013.25;;;20.25
71807;BMP280;59655;42.590;23.364;2023-06-22T00:10:40;92018.78;;;20.27
71807;BMP280;59655;42.590;23.364;2023-06-22T00:13:07;92018.66;;;20.25
71807;BMP280;59655;42.590;23.364;2023-06-22T00:15:33;92023.44;;;20.27
71807;BMP280;59655;42.590;23.364;2023-06-22T00:17:59;92017.81;;;20.23
71807;BMP280;59655;42.590;23.364;2023-06-22T00:20:26;92018.03;;;20.27
71807;BMP280;59655;42.590;23.364;2023-06-22T00:22:53;92018.78;;;20.27
71807;BMP280;59655;42.590;23.364;2023-06-22T00:25:19;92009.50;;;20.19
71807;BMP280;59655;42.590;23.364;2023-06-22T00:27:44;92008.47;;;20.24
71807;BMP280;59655;42.590;23.364;2023-06-22T00:30:10;92009.13;;;20.24
71807;BMP280;59655;42.590;23.364;2023-06-22T00:32:35;92005.16;;;20.25
71807;BMP280;59655;42.590;23.364;2023-06-22T00:35:01;91992.06;;;20.20
71807;BMP280;59655;42.590;23.364;2023-06-22T00:37:26;91995.22;;;20.16
71807;BMP280;59655;42.590;23.364;2023-06-22T00:39:54;92000.50;;;20.14
71807;BMP280;59655;42.590;23.364;2023-06-22T00:42:20;92009.84;;;20.13
71807;BMP280;59655;42.590;23.364;2023-06-22T00:44:45;91997.09;;;20.14
71807;BMP280;59655;42.590;23.364;2023-06-22T00:47:12;91995.22;;;20.16
71807;BMP280;59655;42.590;23.364;2023-06-22T00:49:38;91996.97;;;20.12
71807;BMP280;59655;42.590;23.364;2023-06-22T00:52:05;91998.72;;;20.07
71807;BMP280;59655;42.590;23.364;2023-06-22T00:54:35;91994.50;;;20.04
71807;BMP280;59655;42.590;23.364;2023-06-22T00:57:02;91993.47;;;19.97
71807;BMP280;59655;42.590;23.364;2023-06-22T00:59:27;91992.66;;;19.95
71807;BMP280;59655;42.590;23.364;2023-06-22T01:01:53;91992.66;;;19.95
71807;BMP280;59655;42.590;23.364;2023-06-22T01:04:18;91985.41;;;19.86
71807;BMP280;59655;42.590;23.364;2023-06-22T01:07:20;91988.09;;;19.86
71807;BMP280;59655;42.590;23.364;2023-06-22T01:12:22;92004.47;;;19.90
71807;BMP280;59655;42.590;23.364;2023-06-22T01:14:53;91999.09;;;19.90
71807;BMP280;59655;42.590;23.364;2023-06-22T01:17:21;91989.72;;;19.91
71807;BMP280;59655;42.590;23.364;2023-06-22T01:19:49;91991.00;;;19.90
71807;BMP280;59655;42.590;23.364;2023-06-22T01:22:21;91993.38;;;19.83
71807;BMP280;59655;42.590;23.364;2023-06-22T01:25:11;91995.47;;;19.85
71807;BMP280;59655;42.590;23.364;2023-06-22T01:27:56;91983.75;;;19.80
71807;BMP280;59655;42.590;23.364;2023-06-22T01:30:27;91991.38;;;19.84
71807;BMP280;59655;42.590;23.364;2023-06-22T01:32:56;91996.06;;;19.83
71807;BMP280;59655;42.590;23.364;2023-06-22T01:35:22;91995.47;;;19.85
71807;BMP280;59655;42.590;23.364;2023-06-22T01:37:48;92003.53;;;19.85
71807;BMP280;59655;42.590;23.364;2023-06-22T01:40:14;91996.88;;;19.86
71807;BMP280;59655;42.590;23.364;2023-06-22T01:42:41;91990.78;;;19.86
71807;BMP280;59655;42.590;23.364;2023-06-22T01:45:09;91995.59;;;19.87
71807;BMP280;59655;42.590;23.364;2023-06-22T01:47:35;91999.56;;;19.86
71807;BMP280;59655;42.590;23.364;2023-06-22T01:50:01;91996.88;;;19.86
71807;BMP280;59655;42.590;23.364;2023-06-22T01:52:26;92000.97;;;19.87
71807;BMP280;59655;42.590;23.364;2023-06-22T01:54:51;92006.94;;;19.86
71807;BMP280;59655;42.590;23.364;2023-06-22T01:57:17;92008.94;;;19.85
71807;BMP280;59655;42.590;23.364;2023-06-22T02:02:33;92004.16;;;19.83
71807;BMP280;59655;42.590;23.364;2023-06-22T02:05:11;92013.50;;;19.82
71807;BMP280;59655;42.590;23.364;2023-06-22T02:07:46;92019.00;;;19.85
71807;BMP280;59655;42.590;23.364;2023-06-22T02:10:14;92019.00;;;19.85
71807;BMP280;59655;42.590;23.364;2023-06-22T02:12:42;92020.78;;;19.80
71807;BMP280;59655;42.590;23.364;2023-06-22T02:15:09;92016.06;;;19.80
71807;BMP280;59655;42.590;23.364;2023-06-22T02:17:35;92020.88;;;19.82
71807;BMP280;59655;42.590;23.364;2023-06-22T02:20:02;92016.06;;;19.80
71807;BMP280;59655;42.590;23.364;2023-06-22T02:22:29;92003.28;;;19.81
71807;BMP280;59655;42.590;23.364;2023-06-22T02:24:56;92002.25;;;19.74
71807;BMP280;59655;42.590;23.364;2023-06-22T02:27:21;92007.28;;;19.68
71807;BMP280;59655;42.590;23.364;2023-06-22T02:29:46;92004.72;;;19.70
71807;BMP280;59655;42.590;23.364;2023-06-22T02:32:12;92006.00;;;19.69
71807;BMP280;59655;42.590;23.364;2023-06-22T02:34:37;92008.13;;;19.71
71807;BMP280;59655;42.590;23.364;2023-06-22T02:37:03;91998.41;;;19.77
71807;BMP280;59655;42.590;23.364;2023-06-22T02:39:28;91996.97;;;19.76
71807;BMP280;59655;42.590;23.364;2023-06-22T02:41:54;91990.78;;;19.74
71807;BMP280;59655;42.590;23.364;2023-06-22T02:44:20;91996.06;;;19.72
71807;BMP280;59655;42.590;23.364;2023-06-22T02:46:47;91996.75;;;19.72
71807;BMP280;59655;42.590;23.364;2023-06-22T02:49:12;91996.66;;;19.70
71807;BMP280;59655;42.590;23.364;2023-06-22T02:51:42;92003.69;;;19.75
71807;BMP280;59655;42.590;23.364;2023-06-22T02:54:07;92007.09;;;19.76
71807;BMP280;59655;42.590;23.364;2023-06-22T02:56:33;92008.44;;;19.77
71807;BMP280;59655;42.590;23.364;2023-06-22T02:58:58;92008.34;;;19.75
71807;BMP280;59655;42.590;23.364;2023-06-22T03:01:27;92019.13;;;19.75
71807;BMP280;59655;42.590;23.364;2023-06-22T03:03:53;92015.50;;;19.70
71807;BMP280;59655;42.590;23.364;2023-06-22T03:06:20;92018.88;;;19.71
71807;BMP280;59655;42.590;23.364;2023-06-22T03:08:49;92007.53;;;19.72
71807;BMP280;59655;42.590;23.364;2023-06-22T03:11:15;92008.91;;;19.73
71807;BMP280;59655;42.590;23.364;2023-06-22T03:13:41;92010.34;;;19.74
71807;BMP280;59655;42.590;23.364;2023-06-22T03:16:06;92012.91;;;19.72
71807;BMP280;59655;42.590;23.364;2023-06-22T03:18:31;92005.53;;;19.73
71807;BMP280;59655;42.590;23.364;2023-06-22T03:20:57;92015.72;;;19.74
71807;BMP280;59655;42.590;23.364;2023-06-22T03:23:22;92010.91;;;19.73
71807;BMP280;59655;42.590;23.364;2023-06-22T03:25:47;92021.81;;;19.75
71807;BMP280;59655;42.590;23.364;2023-06-22T03:28:13;92027.78;;;19.73
71807;BMP280;59655;42.590;23.364;2023-06-22T03:30:38;92023.91;;;19.76
71807;BMP280;59655;42.590;23.364;2023-06-22T03:33:04;92029.91;;;19.75
71807;BMP280;59655;42.590;23.364;2023-06-22T03:35:29;92026.50;;;19.74
71807;BMP280;59655;42.590;23.364;2023-06-22T03:37:54;92026.28;;;19.70
71807;BMP280;59655;42.590;23.364;2023-06-22T03:40:20;92031.66;;;19.70
71807;BMP280;59655;42.590;23.364;2023-06-22T03:42:46;92032.34;;;19.71
71807;BMP280;59655;42.590;23.364;2023-06-22T03:45:12;92029.31;;;19.65
71807;BMP280;59655;42.590;23.364;2023-06-22T03:47:37;92034.69;;;19.65
71807;BMP280;59655;42.590;23.364;2023-06-22T03:50:03;92035.03;;;19.71
71807;BMP280;59655;42.590;23.364;2023-06-22T03:52:31;92034.34;;;19.70
71807;BMP280;59655;42.590;23.364;2023-06-22T03:54:57;92038.44;;;19.71
71807;BMP280;59655;42.590;23.364;2023-06-22T03:57:23;92034.44;;;19.72
71807;BMP280;59655;42.590;23.364;2023-06-22T03:59:48;92037.97;;;19.75
71807;BMP280;59655;42.590;23.364;2023-06-22T04:02:14;92043.38;;;19.75
71807;BMP280;59655;42.590;23.364;2023-06-22T04:04:39;92046.78;;;19.75
71807;BMP280;59655;42.590;23.364;2023-06-22T04:07:05;92050.84;;;19.76
71807;BMP280;59655;42.590;23.364;2023-06-22T04:09:30;92043.47;;;19.77
71807;BMP280;59655;42.590;23.364;2023-06-22T04:11:56;92051.31;;;19.73
71807;BMP280;59655;42.590;23.364;2023-06-22T04:14:21;92059.63;;;19.77
71807;BMP280;59655;42.590;23.364;2023-06-22T04:16:47;92054.97;;;19.77
71807;BMP280;59655;42.590;23.364;2023-06-22T04:19:13;92051.44;;;19.75
71807;BMP280;59655;42.590;23.364;2023-06-22T04:21:42;92050.84;;;19.76
71807;BMP280;59655;42.590;23.364;2023-06-22T04:24:09;92051.69;;;19.79
71807;BMP280;59655;42.590;23.364;2023-06-22T04:26:35;92041.00;;;19.81
71807;BMP280;59655;42.590;23.364;2023-06-22T04:29:04;92050.41;;;19.80
71807;BMP280;59655;42.590;23.364;2023-06-22T04:31:37;92045.69;;;19.80
71807;BMP280;59655;42.590;23.364;2023-06-22T04:34:04;92052.50;;;19.81
71807;BMP280;59655;42.590;23.364;2023-06-22T04:36:40;92040.56;;;19.85
71807;BMP280;59655;42.590;23.364;2023-06-22T04:39:10;92030.38;;;19.83
71807;BMP280;59655;42.590;23.364;2023-06-22T04:41:37;92038.56;;;19.85
71807;BMP280;59655;42.590;23.364;2023-06-22T04:44:18;92036.56;;;19.86
71807;BMP280;59655;42.590;23.364;2023-06-22T04:46:50;92039.50;;;19.90
71807;BMP280;59655;42.590;23.364;2023-06-22T04:49:19;92037.50;;;19.90
71807;BMP280;59655;42.590;23.364;2023-06-22T04:51:45;92038.22;;;19.91
71807;BMP280;59655;42.590;23.364;2023-06-22T04:54:10;92039.63;;;19.92
71807;BMP280;59655;42.590;23.364;2023-06-22T04:56:36;92043.63;;;19.91
71807;BMP280;59655;42.590;23.364;2023-06-22T04:59:02;92041.06;;;19.93
71807;BMP280;59655;42.590;23.364;2023-06-22T05:01:28;92038.47;;;19.95
71807;BMP280;59655;42.590;23.364;2023-06-22T05:03:53;92047.38;;;19.97
71807;BMP280;59655;42.590;23.364;2023-06-22T05:06:24;92044.91;;;20.01
71807;BMP280;59655;42.590;23.364;2023-06-22T05:08:59;92037.06;;;20.05
71807;BMP280;59655;42.590;23.364;2023-06-22T05:11:27;92045.84;;;20.06
71807;BMP280;59655;42.590;23.364;2023-06-22T05:13:53;92052.88;;;20.11
71807;BMP280;59655;42.590;23.364;2023-06-22T05:16:20;92048.41;;;20.16
71807;BMP280;59655;42.590;23.364;2023-06-22T05:18:55;92048.66;;;20.20
71807;BMP280;59655;42.590;23.364;2023-06-22T05:21:26;92038.91;;;20.26
71807;BMP280;59655;42.590;23.364;2023-06-22T05:23:52;92039.13;;;20.30
71807;BMP280;59655;42.590;23.364;2023-06-22T05:26:19;92043.25;;;20.32
71807;BMP280;59655;42.590;23.364;2023-06-22T05:28:46;92051.56;;;20.36
71807;BMP280;59655;42.590;23.364;2023-06-22T05:31:15;92044.28;;;20.38
71807;BMP280;59655;42.590;23.364;2023-06-22T05:33:44;92050.53;;;20.41
71807;BMP280;59655;42.590;23.364;2023-06-22T05:36:09;92055.41;;;20.44
71807;BMP280;59655;42.590;23.364;2023-06-22T05:38:36;92052.81;;;20.46
71807;BMP280;59655;42.590;23.364;2023-06-22T05:41:01;92062.91;;;20.46
71807;BMP280;59655;42.590;23.364;2023-06-22T05:43:27;92063.13;;;20.50
71807;BMP280;59655;42.590;23.364;2023-06-22T05:45:52;92068.78;;;20.54
71807;BMP280;59655;42.590;23.364;2023-06-22T05:48:17;92071.00;;;20.58
71807;BMP280;59655;42.590;23.364;2023-06-22T05:50:43;92073.34;;;20.51
71807;BMP280;59655;42.590;23.364;2023-06-22T05:53:08;92078.84;;;20.53
71807;BMP280;59655;42.590;23.364;2023-06-22T05:55:34;92078.84;;;20.53
71807;BMP280;59655;42.590;23.364;2023-06-22T05:57:59;92081.44;;;20.51
71807;BMP280;59655;42.590;23.364;2023-06-22T06:00:25;92086.25;;;20.53
71807;BMP280;59655;42.590;23.364;2023-06-22T06:02:50;92092.34;;;20.53
71807;BMP280;59655;42.590;23.364;2023-06-22T06:05:16;92076.38;;;20.58
71807;BMP280;59655;42.590;23.364;2023-06-22T06:07:42;92078.47;;;20.59
71807;BMP280;59655;42.590;23.364;2023-06-22T06:10:08;92079.31;;;20.62
71807;BMP280;59655;42.590;23.364;2023-06-22T06:12:33;92083.41;;;20.63
71807;BMP280;59655;42.590;23.364;2023-06-22T06:14:59;92078.69;;;20.63
71807;BMP280;59655;42.590;23.364;2023-06-22T06:17:24;92075.44;;;20.65
71807;BMP280;59655;42.590;23.364;2023-06-22T06:19:50;92083.66;;;20.67
71807;BMP280;59655;42.590;23.364;2023-06-22T06:22:15;92073.66;;;20.69
71807;BMP280;59655;42.590;23.364;2023-06-22T06:24:40;92080.56;;;20.72
71807;BMP280;59655;42.590;23.364;2023-06-22T06:27:06;92079.16;;;20.71
71807;BMP280;59655;42.590;23.364;2023-06-22T06:29:32;92082.00;;;20.73
71807;BMP280;59655;42.590;23.364;2023-06-22T06:31:57;92076.59;;;20.73
71807;BMP280;59655;42.590;23.364;2023-06-22T06:34:22;92075.88;;;20.73
71807;BMP280;59655;42.590;23.364;2023-06-22T06:36:48;92077.28;;;20.74
71807;BMP280;59655;42.590;23.364;2023-06-22T06:39:13;92078.91;;;20.79
71807;BMP280;59655;42.590;23.364;2023-06-22T06:41:39;92084.44;;;20.81
71807;BMP280;59655;42.590;23.364;2023-06-22T06:44:04;92084.56;;;20.83
71807;BMP280;59655;42.590;23.364;2023-06-22T06:46:30;92078.44;;;20.83
71807;BMP280;59655;42.590;23.364;2023-06-22T06:48:55;92068.69;;;20.89
71807;BMP280;59655;42.590;23.364;2023-06-22T06:51:20;92069.59;;;20.94
71807;BMP280;59655;42.590;23.364;2023-06-22T06:53:46;92074.41;;;20.95
71807;BMP280;59655;42.590;23.364;2023-06-22T06:56:11;92075.44;;;21.02
71807;BMP280;59655;42.590;23.364;2023-06-22T06:58:38;92070.41;;;21.08
71807;BMP280;59655;42.590;23.364;2023-06-22T07:01:04;92074.69;;;21.13
71807;BMP280;59655;42.590;23.364;2023-06-22T07:03:29;92072.19;;;21.17
71807;BMP280;59655;42.590;23.364;2023-06-22T07:05:55;92076.16;;;21.28
71807;BMP280;59655;42.590;23.364;2023-06-22T07:08:20;92070.19;;;21.30
71807;BMP280;59655;42.590;23.364;2023-06-22T07:10:45;92062.28;;;21.34
71807;BMP280;59655;42.590;23.364;2023-06-22T07:13:11;92065.88;;;21.38
71807;BMP280;59655;42.590;23.364;2023-06-22T07:15:37;92069.41;;;21.41
71807;BMP280;59655;42.590;23.364;2023-06-22T07:18:02;92069.50;;;21.43
71807;BMP280;59655;42.590;23.364;2023-06-22T07:20:28;92068.22;;;21.44
71807;BMP280;59655;42.590;23.364;2023-06-22T07:22:53;92072.44;;;21.47
71807;BMP280;59655;42.590;23.364;2023-06-22T07:25:19;92075.72;;;21.45
71807;BMP280;59655;42.590;23.364;2023-06-22T07:27:46;92073.13;;;21.47
71807;BMP280;59655;42.590;23.364;2023-06-22T07:30:21;92071.25;;;21.50
71807;BMP280;59655;42.590;23.364;2023-06-22T07:32:46;92073.44;;;21.54
71807;BMP280;59655;42.590;23.364;2023-06-22T07:35:12;92073.53;;;21.56
71807;BMP280;59655;42.590;23.364;2023-06-22T07:37:37;92071.31;;;21.52
71807;BMP280;59655;42.590;23.364;2023-06-22T07:40:03;92070.75;;;21.54
71807;BMP280;59655;42.590;23.364;2023-06-22T07:42:31;92070.97;;;21.58
71807;BMP280;59655;42.590;23.364;2023-06-22T07:44:58;92070.34;;;21.59
71807;BMP280;59655;42.590;23.364;2023-06-22T07:47:23;92070.34;;;21.59
71807;BMP280;59655;42.590;23.364;2023-06-22T07:49:53;92075.75;;;21.59
71807;BMP280;59655;42.590;23.364;2023-06-22T07:52:20;92078.44;;;21.59
71807;BMP280;59655;42.590;23.364;2023-06-22T07:54:46;92082.56;;;21.60
71807;BMP280;59655;42.590;23.364;2023-06-22T07:57:12;92088.19;;;21.64
71807;BMP280;59655;42.590;23.364;2023-06-22T07:59:37;92083.69;;;21.69
71807;BMP280;59655;42.590;23.364;2023-06-22T08:02:04;92086.84;;;21.91
71807;BMP280;59655;42.590;23.364;2023-06-22T08:04:30;92083.53;;;21.92
71807;BMP280;59655;42.590;23.364;2023-06-22T08:06:57;92084.75;;;22.03
71807;BMP280;59655;42.590;23.364;2023-06-22T08:09:22;92077.25;;;22.02
71807;BMP280;59655;42.590;23.364;2023-06-22T08:11:48;92073.44;;;22.07
71807;BMP280;59655;42.590;23.364;2023-06-22T08:14:14;92077.25;;;22.43
71807;BMP280;59655;42.590;23.364;2023-06-22T08:16:41;92081.16;;;22.40
71807;BMP280;59655;42.590;23.364;2023-06-22T08:19:06;92074.25;;;22.37
71807;BMP280;59655;42.590;23.364;2023-06-22T08:21:32;92077.06;;;22.39
71807;BMP280;59655;42.590;23.364;2023-06-22T08:23:57;92076.03;;;22.32
71807;BMP280;59655;42.590;23.364;2023-06-22T08:26:22;92067.25;;;22.32
71807;BMP280;59655;42.590;23.364;2023-06-22T08:28:48;92065.03;;;22.42
71807;BMP280;59655;42.590;23.364;2023-06-22T08:31:13;92061.00;;;22.43
71807;BMP280;59655;42.590;23.364;2023-06-22T08:33:39;92056.63;;;22.36
71807;BMP280;59655;42.590;23.364;2023-06-22T08:36:06;92055.00;;;22.31
71807;BMP280;59655;42.590;23.364;2023-06-22T08:38:31;92056.41;;;22.32
71807;BMP280;59655;42.590;23.364;2023-06-22T08:40:57;92049.78;;;22.35
71807;BMP280;59655;42.590;23.364;2023-06-22T08:43:22;92065.63;;;22.40
71807;BMP280;59655;42.590;23.364;2023-06-22T08:45:48;92065.03;;;22.42
71807;BMP280;59655;42.590;23.364;2023-06-22T08:48:13;92067.72;;;22.56
71807;BMP280;59655;42.590;23.364;2023-06-22T08:50:39;92071.13;;;22.56
71807;BMP280;59655;42.590;23.364;2023-06-22T08:53:06;92073.66;;;22.52
71807;BMP280;59655;42.590;23.364;2023-06-22T08:55:31;92071.84;;;22.43
71807;BMP280;59655;42.590;23.364;2023-06-22T08:57:57;92068.94;;;22.39
71807;BMP280;59655;42.590;23.364;2023-06-22T09:00:22;92069.63;;;22.39
71807;BMP280;59655;42.590;23.364;2023-06-22T09:02:47;92072.94;;;22.38
71807;BMP280;59655;42.590;23.364;2023-06-22T09:05:13;92069.94;;;22.32
71807;BMP280;59655;42.590;23.364;2023-06-22T09:07:39;92068.13;;;22.36
71807;BMP280;59655;42.590;23.364;2023-06-22T09:10:05;92059.31;;;22.36
71807;BMP280;59655;42.590;23.364;2023-06-22T09:12:31;92060.59;;;22.35
71807;BMP280;59655;42.590;23.364;2023-06-22T09:15:00;92056.09;;;22.39
71807;BMP280;59655;42.590;23.364;2023-06-22T09:17:26;92058.03;;;22.37
71807;BMP280;59655;42.590;23.364;2023-06-22T09:19:52;92060.00;;;22.36
71807;BMP280;59655;42.590;23.364;2023-06-22T09:22:17;92056.09;;;22.39
71807;BMP280;59655;42.590;23.364;2023-06-22T09:24:43;92056.91;;;22.42
71807;BMP280;59655;42.590;23.364;2023-06-22T09:27:08;92062.22;;;22.40
71807;BMP280;59655;42.590;23.364;2023-06-22T09:29:34;92065.50;;;22.38
71807;BMP280;59655;42.590;23.364;2023-06-22T09:32:00;92064.22;;;22.39
71807;BMP280;59655;42.590;23.364;2023-06-22T09:34:25;92064.34;;;22.41
71807;BMP280;59655;42.590;23.364;2023-06-22T09:36:51;92063.22;;;22.46
71807;BMP280;59655;42.590;23.364;2023-06-22T09:39:18;92076.53;;;22.56
71807;BMP280;59655;42.590;23.364;2023-06-22T09:41:43;92072.41;;;22.55
71807;BMP280;59655;42.590;23.364;2023-06-22T09:44:08;92071.63;;;22.53
71807;BMP280;59655;42.590;23.364;2023-06-22T09:46:34;92070.94;;;22.52
71807;BMP280;59655;42.590;23.364;2023-06-22T09:48:59;92065.41;;;22.50
71807;BMP280;59655;42.590;23.364;2023-06-22T09:51:25;92070.31;;;22.54
71807;BMP280;59655;42.590;23.364;2023-06-22T09:53:51;92073.66;;;22.52
71807;BMP280;59655;42.590;23.364;2023-06-22T09:56:16;92070.81;;;22.50
71807;BMP280;59655;42.590;23.364;2023-06-22T09:58:43;92070.63;;;22.46
71807;BMP280;59655;42.590;23.364;2023-06-22T10:01:09;92076.22;;;22.64
71807;BMP280;59655;42.590;23.364;2023-06-22T10:03:35;92065.09;;;22.58
71807;BMP280;59655;42.590;23.364;2023-06-22T10:06:01;92066.69;;;22.63
71807;BMP280;59655;42.590;23.364;2023-06-22T10:08:26;92060.19;;;22.68
71807;BMP280;59655;42.590;23.364;2023-06-22T10:10:52;92060.47;;;22.74
71807;BMP280;59655;42.590;23.364;2023-06-22T10:13:17;92048.22;;;22.73
71807;BMP280;59655;42.590;23.364;2023-06-22T10:15:44;92052.97;;;22.72
71807;BMP280;59655;42.590;23.364;2023-06-22T10:18:15;92063.09;;;22.72
71807;BMP280;59655;42.590;23.364;2023-06-22T10:20:40;92057.34;;;22.80
71807;BMP280;59655;42.590;23.364;2023-06-22T10:23:05;92056.66;;;22.79
71807;BMP280;59655;42.590;23.364;2023-06-22T10:25:31;92060.13;;;22.82
71807;BMP280;59655;42.590;23.364;2023-06-22T10:27:56;92059.03;;;22.87
71807;BMP280;59655;42.590;23.364;2023-06-22T10:30:22;92050.81;;;22.85
71807;BMP280;59655;42.590;23.364;2023-06-22T10:32:48;92048.91;;;22.87
71807;BMP280;59655;42.590;23.364;2023-06-22T10:35:14;92042.19;;;22.88
71807;BMP280;59655;42.590;23.364;2023-06-22T10:37:44;92041.56;;;22.90
71807;BMP280;59655;42.590;23.364;2023-06-22T10:40:15;92046.47;;;22.93
71807;BMP280;59655;42.590;23.364;2023-06-22T10:42:41;92044.56;;;22.96
71807;BMP280;59655;42.590;23.364;2023-06-22T10:45:07;92042.56;;;22.96
71807;BMP280;59655;42.590;23.364;2023-06-22T10:47:33;92040.66;;;22.99
71807;BMP280;59655;42.590;23.364;2023-06-22T10:49:58;92041.59;;;23.06
71807;BMP280;59655;42.590;23.364;2023-06-22T10:52:24;92039.44;;;23.02
71807;BMP280;59655;42.590;23.364;2023-06-22T10:54:49;92036.91;;;23.06
71807;BMP280;59655;42.590;23.364;2023-06-22T10:57:15;92042.22;;;23.04
71807;BMP280;59655;42.590;23.364;2023-06-22T10:59:40;92043.63;;;23.05
71807;BMP280;59655;42.590;23.364;2023-06-22T11:02:05;92035.69;;;23.09
71807;BMP280;59655;42.590;23.364;2023-06-22T11:04:31;92034.28;;;23.08
71807;BMP280;59655;42.590;23.364;2023-06-22T11:06:56;92034.97;;;23.09
71807;BMP280;59655;42.590;23.364;2023-06-22T11:09:22;92036.06;;;23.17
71807;BMP280;59655;42.590;23.364;2023-06-22T11:11:48;92029.34;;;23.18
71807;BMP280;59655;42.590;23.364;2023-06-22T11:14:14;92037.03;;;23.24
71807;BMP280;59655;42.590;23.364;2023-06-22T11:16:39;92032.81;;;23.21
71807;BMP280;59655;42.590;23.364;2023-06-22T11:19:05;92027.13;;;23.31
71807;BMP280;59655;42.590;23.364;2023-06-22T11:21:31;92026.03;;;23.36
71807;BMP280;59655;42.590;23.364;2023-06-22T11:23:58;92016.06;;;23.40
71807;BMP280;59655;42.590;23.364;2023-06-22T11:26:24;92016.97;;;23.45
71807;BMP280;59655;42.590;23.364;2023-06-22T11:28:49;92023.06;;;23.45
71807;BMP280;59655;42.590;23.364;2023-06-22T11:31:15;92017.22;;;23.51
71807;BMP280;59655;42.590;23.364;2023-06-22T11:33:40;92015.81;;;23.66
71807;BMP280;59655;42.590;23.364;2023-06-22T11:36:05;92009.16;;;23.53
71807;BMP280;59655;42.590;23.364;2023-06-22T11:38:31;92015.31;;;23.69
71807;BMP280;59655;42.590;23.364;2023-06-22T11:40:58;92017.81;;;23.81
71807;BMP280;59655;42.590;23.364;2023-06-22T11:43:23;92015.34;;;24.03
71807;BMP280;59655;42.590;23.364;2023-06-22T11:45:49;92016.09;;;24.22
71807;BMP280;59655;42.590;23.364;2023-06-22T11:48:15;92006.75;;;24.09
71807;BMP280;59655;42.590;23.364;2023-06-22T11:50:41;92012.50;;;24.17
71807;BMP280;59655;42.590;23.364;2023-06-22T11:53:06;92000.59;;;24.24
71807;BMP280;59655;42.590;23.364;2023-06-22T11:55:32;92005.09;;;24.17
71807;BMP280;59655;42.590;23.364;2023-06-22T11:57:57;92004.94;;;24.31
71807;BMP280;59655;42.590;23.364;2023-06-22T12:00:29;91996.97;;;24.53
71807;BMP280;59655;42.590;23.364;2023-06-22T12:02:55;91995.84;;;24.58
71807;BMP280;59655;42.590;23.364;2023-06-22T12:05:21;91992.28;;;24.38
71807;BMP280;59655;42.590;23.364;2023-06-22T12:07:48;91986.81;;;24.54
71807;BMP280;59655;42.590;23.364;2023-06-22T12:10:13;91996.97;;;24.53
71807;BMP280;59655;42.590;23.364;2023-06-22T12:12:39;92002.25;;;24.49
71807;BMP280;59655;42.590;23.364;2023-06-22T12:15:05;92000.00;;;24.61
71807;BMP280;59655;42.590;23.364;2023-06-22T12:17:31;92000.31;;;24.69
71807;BMP280;59655;42.590;23.364;2023-06-22T12:19:56;91999.44;;;25.01
71807;BMP280;59655;42.590;23.364;2023-06-22T12:22:21;91998.50;;;24.94
71807;BMP280;59655;42.590;23.364;2023-06-22T12:24:47;92004.47;;;24.73
71807;BMP280;59655;42.590;23.364;2023-06-22T12:27:12;91995.28;;;24.62
71807;BMP280;59655;42.590;23.364;2023-06-22T12:29:38;91995.34;;;24.64
71807;BMP280;59655;42.590;23.364;2023-06-22T12:32:04;91991.16;;;24.43
71807;BMP280;59655;42.590;23.364;2023-06-22T12:34:29;91998.59;;;24.42
71807;BMP280;59655;42.590;23.364;2023-06-22T12:36:55;92003.00;;;24.34
71807;BMP280;59655;42.590;23.364;2023-06-22T12:39:20;92002.59;;;24.24
71807;BMP280;59655;42.590;23.364;2023-06-22T12:41:45;92011.78;;;24.16
71807;BMP280;59655;42.590;23.364;2023-06-22T12:44:11;92022.41;;;24.10
71807;BMP280;59655;42.590;23.364;2023-06-22T12:46:36;92047.72;;;23.99
71807;BMP280;59655;42.590;23.364;2023-06-22T12:49:04;92063.63;;;23.91
71807;BMP280;59655;42.590;23.364;2023-06-22T12:51:30;92066.69;;;23.83
71807;BMP280;59655;42.590;23.364;2023-06-22T12:53:56;92054.81;;;23.75
71807;BMP280;59655;42.590;23.364;2023-06-22T12:56:21;92063.47;;;23.71
71807;BMP280;59655;42.590;23.364;2023-06-22T12:58:47;92083.47;;;23.64
71807;BMP280;59655;42.590;23.364;2023-06-22T13:01:12;92090.28;;;23.49
71807;BMP280;59655;42.590;23.364;2023-06-22T13:03:38;92076.47;;;23.43
71807;BMP280;59655;42.590;23.364;2023-06-22T13:06:03;92080.81;;;23.34
71807;BMP280;59655;42.590;23.364;2023-06-22T13:08:29;92086.03;;;23.30
71807;BMP280;59655;42.590;23.364;2023-06-22T13:10:54;92096.88;;;23.30
71807;BMP280;59655;42.590;23.364;2023-06-22T13:13:23;92093.13;;;23.21
71807;BMP280;59655;42.590;23.364;2023-06-22T13:15:50;92085.88;;;23.26
71807;BMP280;59655;42.590;23.364;2023-06-22T13:18:15;92070.16;;;23.23
71807;BMP280;59655;42.590;23.364;2023-06-22T13:23:06;92071.06;;;23.13
71807;BMP280;59655;42.590;23.364;2023-06-22T13:25:32;92066.19;;;23.10
71807;BMP280;59655;42.590;23.364;2023-06-22T13:27:57;92072.13;;;23.06
71807;BMP280;59655;42.590;23.364;2023-06-22T13:30:22;92065.38;;;23.07
71807;BMP280;59655;42.590;23.364;2023-06-22T13:32:48;92063.56;;;23.12
71807;BMP280;59655;42.590;23.364;2023-06-22T13:35:13;92063.16;;;23.17
71807;BMP280;59655;42.590;23.364;2023-06-22T13:37:39;92059.53;;;23.13
71807;BMP280;59655;42.590;23.364;2023-06-22T13:40:07;92060.56;;;23.06
71807;BMP280;59655;42.590;23.364;2023-06-22T13:42:33;92052.34;;;23.04
71807;BMP280;59655;42.590;23.364;2023-06-22T13:44:59;92044.84;;;23.02
71807;BMP280;59655;42.590;23.364;2023-06-22T13:47:24;92051.47;;;22.99
71807;BMP280;59655;42.590;23.364;2023-06-22T13:49:49;92046.66;;;22.97
71807;BMP280;59655;42.590;23.364;2023-06-22T13:52:15;92051.56;;;23.01
71807;BMP280;59655;42.590;23.364;2023-06-22T13:54:40;92055.69;;;23.02
71807;BMP280;59655;42.590;23.364;2023-06-22T13:57:06;92043.94;;;22.97
71807;BMP280;59655;42.590;23.364;2023-06-22T13:59:31;92048.66;;;22.97